sensor_id;sensor_type;location;lat;lon;timestamp;P1;durP1;ratioP1;P2;durP2;ratioP2
42846;SDS011;28495;49.916;14.536;2023-05-02T00:00:38;2.70;;;2.40;;
42846;SDS011;28495;49.916;14.536;2023-05-02T00:05:59;4.85;;;3.15;;
42846;SDS011;28495;49.916;14.536;2023-05-02T00:11:20;4.68;;;3.60;;
42846;SDS011;28495;49.916;14.536;2023-05-02T00:16:42;5.20;;;3.72;;
42846;SDS011;28495;49.916;14.536;2023-05-02T00:22:03;6.00;;;3.72;;
42846;SDS011;28495;49.916;14.536;2023-05-02T00:27:23;3.35;;;3.03;;
42846;SDS011;28495;49.916;14.536;2023-05-02T00:32:44;4.80;;;3.67;;
42846;SDS011;28495;49.916;14.536;2023-05-02T00:38:06;4.65;;;3.35;;
42846;SDS011;28495;49.916;14.536;2023-05-02T00:43:29;4.07;;;3.67;;
42846;SDS011;28495;49.916;14.536;2023-05-02T00:48:50;3.83;;;3.22;;
42846;SDS011;28495;49.916;14.536;2023-05-02T00:54:12;4.15;;;3.15;;
42846;SDS011;28495;49.916;14.536;2023-05-02T00:59:34;5.30;;;3.72;;
42846;SDS011;28495;49.916;14.536;2023-05-02T01:05:10;3.58;;;3.17;;
42846;SDS011;28495;49.916;14.536;2023-05-02T01:10:40;4.97;;;3.40;;
42846;SDS011;28495;49.916;14.536;2023-05-02T01:16:05;5.00;;;3.03;;
42846;SDS011;28495;49.916;14.536;2023-05-02T01:21:30;2.95;;;2.65;;
42846;SDS011;28495;49.916;14.536;2023-05-02T01:32:38;4.80;;;3.25;;
42846;SDS011;28495;49.916;14.536;2023-05-02T01:38:01;4.25;;;3.08;;
42846;SDS011;28495;49.916;14.536;2023-05-02T01:43:24;4.88;;;3.30;;
42846;SDS011;28495;49.916;14.536;2023-05-02T01:48:46;4.95;;;3.72;;
42846;SDS011;28495;49.916;14.536;2023-05-02T01:54:10;4.50;;;3.33;;
42846;SDS011;28495;49.916;14.536;2023-05-02T01:59:34;4.57;;;3.38;;
42846;SDS011;28495;49.916;14.536;2023-05-02T02:04:56;4.75;;;3.50;;
42846;SDS011;28495;49.916;14.536;2023-05-02T02:10:19;4.72;;;3.85;;
42846;SDS011;28495;49.916;14.536;2023-05-02T02:15:41;4.60;;;3.42;;
42846;SDS011;28495;49.916;14.536;2023-05-02T02:21:06;6.18;;;4.60;;
42846;SDS011;28495;49.916;14.536;2023-05-02T02:26:30;5.47;;;4.07;;
42846;SDS011;28495;49.916;14.536;2023-05-02T02:31:51;6.63;;;4.10;;
42846;SDS011;28495;49.916;14.536;2023-05-02T02:37:17;5.18;;;3.72;;
42846;SDS011;28495;49.916;14.536;2023-05-02T02:48:35;5.43;;;3.70;;
42846;SDS011;28495;49.916;14.536;2023-05-02T02:54:08;5.22;;;4.10;;
42846;SDS011;28495;49.916;14.536;2023-05-02T02:59:50;6.05;;;4.30;;
42846;SDS011;28495;49.916;14.536;2023-05-02T03:05:18;5.50;;;4.13;;
42846;SDS011;28495;49.916;14.536;2023-05-02T03:10:39;4.97;;;4.25;;
42846;SDS011;28495;49.916;14.536;2023-05-02T03:16:24;7.78;;;4.43;;
42846;SDS011;28495;49.916;14.536;2023-05-02T03:21:52;6.30;;;3.88;;
42846;SDS011;28495;49.916;14.536;2023-05-02T03:27:13;7.50;;;5.22;;
42846;SDS011;28495;49.916;14.536;2023-05-02T03:32:35;5.93;;;4.90;;
42846;SDS011;28495;49.916;14.536;2023-05-02T03:37:56;5.45;;;4.45;;
42846;SDS011;28495;49.916;14.536;2023-05-02T03:43:16;5.30;;;4.45;;
42846;SDS011;28495;49.916;14.536;2023-05-02T03:48:38;6.05;;;4.47;;
42846;SDS011;28495;49.916;14.536;2023-05-02T03:53:59;5.97;;;4.38;;
42846;SDS011;28495;49.916;14.536;2023-05-02T03:59:22;8.63;;;4.45;;
42846;SDS011;28495;49.916;14.536;2023-05-02T04:04:44;5.30;;;4.15;;
42846;SDS011;28495;49.916;14.536;2023-05-02T04:10:09;6.80;;;4.80;;
42846;SDS011;28495;49.916;14.536;2023-05-02T04:15:40;5.00;;;4.30;;
42846;SDS011;28495;49.916;14.536;2023-05-02T04:21:01;8.77;;;5.53;;
42846;SDS011;28495;49.916;14.536;2023-05-02T04:26:23;8.75;;;4.80;;
42846;SDS011;28495;49.916;14.536;2023-05-02T04:31:51;6.32;;;4.20;;
42846;SDS011;28495;49.916;14.536;2023-05-02T04:37:15;5.75;;;4.60;;
42846;SDS011;28495;49.916;14.536;2023-05-02T04:48:56;5.78;;;4.97;;
42846;SDS011;28495;49.916;14.536;2023-05-02T04:54:17;6.65;;;4.88;;
42846;SDS011;28495;49.916;14.536;2023-05-02T04:59:40;5.10;;;4.03;;
42846;SDS011;28495;49.916;14.536;2023-05-02T05:05:00;7.10;;;4.43;;
42846;SDS011;28495;49.916;14.536;2023-05-02T05:10:23;6.63;;;4.40;;
42846;SDS011;28495;49.916;14.536;2023-05-02T05:15:44;4.05;;;3.65;;
42846;SDS011;28495;49.916;14.536;2023-05-02T05:21:08;9.00;;;4.18;;
42846;SDS011;28495;49.916;14.536;2023-05-02T05:26:31;7.03;;;4.57;;
42846;SDS011;28495;49.916;14.536;2023-05-02T05:31:52;7.22;;;4.90;;
42846;SDS011;28495;49.916;14.536;2023-05-02T05:37:14;7.53;;;4.45;;
42846;SDS011;28495;49.916;14.536;2023-05-02T05:42:35;8.05;;;4.30;;
42846;SDS011;28495;49.916;14.536;2023-05-02T05:48:03;6.57;;;4.57;;
42846;SDS011;28495;49.916;14.536;2023-05-02T05:53:29;6.00;;;4.63;;
42846;SDS011;28495;49.916;14.536;2023-05-02T05:58:52;5.65;;;4.18;;
42846;SDS011;28495;49.916;14.536;2023-05-02T06:04:14;5.55;;;4.40;;
42846;SDS011;28495;49.916;14.536;2023-05-02T06:09:39;6.15;;;4.57;;
42846;SDS011;28495;49.916;14.536;2023-05-02T06:15:00;5.93;;;4.18;;
42846;SDS011;28495;49.916;14.536;2023-05-02T06:20:22;7.45;;;4.50;;
42846;SDS011;28495;49.916;14.536;2023-05-02T06:25:43;4.97;;;3.95;;
42846;SDS011;28495;49.916;14.536;2023-05-02T06:31:04;6.75;;;4.65;;
42846;SDS011;28495;49.916;14.536;2023-05-02T06:36:25;8.00;;;4.53;;
42846;SDS011;28495;49.916;14.536;2023-05-02T06:41:47;6.50;;;4.72;;
42846;SDS011;28495;49.916;14.536;2023-05-02T06:47:10;6.50;;;5.13;;
42846;SDS011;28495;49.916;14.536;2023-05-02T06:52:31;5.72;;;3.85;;
42846;SDS011;28495;49.916;14.536;2023-05-02T06:57:53;5.55;;;4.15;;
42846;SDS011;28495;49.916;14.536;2023-05-02T07:03:14;5.35;;;4.38;;
42846;SDS011;28495;49.916;14.536;2023-05-02T07:08:35;9.20;;;3.83;;
42846;SDS011;28495;49.916;14.536;2023-05-02T07:13:56;8.15;;;4.32;;
42846;SDS011;28495;49.916;14.536;2023-05-02T07:19:17;6.93;;;3.88;;
42846;SDS011;28495;49.916;14.536;2023-05-02T07:24:41;6.50;;;4.63;;
42846;SDS011;28495;49.916;14.536;2023-05-02T07:30:03;5.85;;;3.90;;
42846;SDS011;28495;49.916;14.536;2023-05-02T07:35:25;6.80;;;4.78;;
42846;SDS011;28495;49.916;14.536;2023-05-02T07:40:46;7.20;;;4.40;;
42846;SDS011;28495;49.916;14.536;2023-05-02T07:46:07;9.07;;;4.50;;
42846;SDS011;28495;49.916;14.536;2023-05-02T07:51:28;5.55;;;4.07;;
42846;SDS011;28495;49.916;14.536;2023-05-02T07:56:49;3.97;;;3.50;;
42846;SDS011;28495;49.916;14.536;2023-05-02T08:02:10;7.75;;;3.92;;
42846;SDS011;28495;49.916;14.536;2023-05-02T08:07:33;7.15;;;5.38;;
42846;SDS011;28495;49.916;14.536;2023-05-02T08:12:57;6.13;;;4.57;;
42846;SDS011;28495;49.916;14.536;2023-05-02T08:18:18;5.40;;;3.80;;
42846;SDS011;28495;49.916;14.536;2023-05-02T08:23:39;5.00;;;4.53;;
42846;SDS011;28495;49.916;14.536;2023-05-02T08:29:01;5.00;;;3.88;;
42846;SDS011;28495;49.916;14.536;2023-05-02T08:34:24;4.05;;;3.55;;
42846;SDS011;28495;49.916;14.536;2023-05-02T08:39:44;5.53;;;3.72;;
42846;SDS011;28495;49.916;14.536;2023-05-02T08:45:05;4.95;;;3.28;;
42846;SDS011;28495;49.916;14.536;2023-05-02T08:50:28;6.60;;;3.90;;
42846;SDS011;28495;49.916;14.536;2023-05-02T08:55:50;5.85;;;4.07;;
42846;SDS011;28495;49.916;14.536;2023-05-02T09:01:15;5.47;;;3.85;;
42846;SDS011;28495;49.916;14.536;2023-05-02T09:06:39;8.27;;;4.03;;
42846;SDS011;28495;49.916;14.536;2023-05-02T09:12:00;5.20;;;4.10;;
42846;SDS011;28495;49.916;14.536;2023-05-02T09:17:22;7.93;;;4.60;;
42846;SDS011;28495;49.916;14.536;2023-05-02T09:22:46;8.43;;;4.38;;
42846;SDS011;28495;49.916;14.536;2023-05-02T09:28:10;8.00;;;4.43;;
42846;SDS011;28495;49.916;14.536;2023-05-02T09:33:30;4.93;;;3.80;;
42846;SDS011;28495;49.916;14.536;2023-05-02T09:38:53;4.35;;;3.72;;
42846;SDS011;28495;49.916;14.536;2023-05-02T09:44:36;5.32;;;3.72;;
42846;SDS011;28495;49.916;14.536;2023-05-02T09:49:57;7.55;;;3.63;;
42846;SDS011;28495;49.916;14.536;2023-05-02T09:55:21;4.38;;;2.78;;
42846;SDS011;28495;49.916;14.536;2023-05-02T10:00:43;3.85;;;2.88;;
42846;SDS011;28495;49.916;14.536;2023-05-02T10:06:04;4.75;;;3.30;;
42846;SDS011;28495;49.916;14.536;2023-05-02T10:11:28;5.18;;;3.20;;
42846;SDS011;28495;49.916;14.536;2023-05-02T10:17:04;4.70;;;3.88;;
42846;SDS011;28495;49.916;14.536;2023-05-02T10:22:29;6.57;;;4.32;;
42846;SDS011;28495;49.916;14.536;2023-05-02T10:27:51;7.22;;;3.38;;
42846;SDS011;28495;49.916;14.536;2023-05-02T10:33:12;5.85;;;3.53;;
42846;SDS011;28495;49.916;14.536;2023-05-02T10:38:37;5.32;;;3.83;;
42846;SDS011;28495;49.916;14.536;2023-05-02T10:43:59;4.28;;;3.35;;
42846;SDS011;28495;49.916;14.536;2023-05-02T10:49:21;6.47;;;3.70;;
42846;SDS011;28495;49.916;14.536;2023-05-02T10:54:46;5.97;;;3.95;;
42846;SDS011;28495;49.916;14.536;2023-05-02T11:00:20;5.07;;;3.95;;
42846;SDS011;28495;49.916;14.536;2023-05-02T11:06:03;4.20;;;3.38;;
42846;SDS011;28495;49.916;14.536;2023-05-02T11:11:37;6.70;;;4.53;;
42846;SDS011;28495;49.916;14.536;2023-05-02T11:22:32;4.93;;;3.20;;
42846;SDS011;28495;49.916;14.536;2023-05-02T11:27:54;6.07;;;3.30;;
42846;SDS011;28495;49.916;14.536;2023-05-02T11:33:16;12.65;;;4.75;;
42846;SDS011;28495;49.916;14.536;2023-05-02T11:38:37;4.55;;;3.75;;
42846;SDS011;28495;49.916;14.536;2023-05-02T11:44:02;4.40;;;3.30;;
42846;SDS011;28495;49.916;14.536;2023-05-02T11:49:23;4.55;;;3.92;;
42846;SDS011;28495;49.916;14.536;2023-05-02T11:54:44;5.68;;;3.70;;
42846;SDS011;28495;49.916;14.536;2023-05-02T12:00:06;5.03;;;3.30;;
42846;SDS011;28495;49.916;14.536;2023-05-02T12:05:28;4.35;;;3.40;;
42846;SDS011;28495;49.916;14.536;2023-05-02T12:10:50;6.13;;;4.15;;
42846;SDS011;28495;49.916;14.536;2023-05-02T12:16:12;5.93;;;4.03;;
42846;SDS011;28495;49.916;14.536;2023-05-02T12:21:33;4.18;;;3.38;;
42846;SDS011;28495;49.916;14.536;2023-05-02T12:27:10;3.38;;;3.05;;
42846;SDS011;28495;49.916;14.536;2023-05-02T12:32:34;3.40;;;3.00;;
42846;SDS011;28495;49.916;14.536;2023-05-02T12:43:44;3.88;;;3.35;;
42846;SDS011;28495;49.916;14.536;2023-05-02T12:49:07;3.67;;;2.63;;
42846;SDS011;28495;49.916;14.536;2023-05-02T12:54:29;3.70;;;2.30;;
42846;SDS011;28495;49.916;14.536;2023-05-02T12:59:53;3.92;;;3.10;;
42846;SDS011;28495;49.916;14.536;2023-05-02T13:10:37;2.97;;;2.55;;
42846;SDS011;28495;49.916;14.536;2023-05-02T13:15:59;3.28;;;2.40;;
42846;SDS011;28495;49.916;14.536;2023-05-02T13:21:20;3.75;;;2.40;;
42846;SDS011;28495;49.916;14.536;2023-05-02T13:26:41;4.07;;;2.70;;
42846;SDS011;28495;49.916;14.536;2023-05-02T13:32:02;3.42;;;2.60;;
42846;SDS011;28495;49.916;14.536;2023-05-02T13:37:23;3.15;;;2.85;;
42846;SDS011;28495;49.916;14.536;2023-05-02T13:42:44;4.18;;;2.72;;
42846;SDS011;28495;49.916;14.536;2023-05-02T13:48:05;6.97;;;2.92;;
42846;SDS011;28495;49.916;14.536;2023-05-02T13:53:26;5.00;;;2.85;;
42846;SDS011;28495;49.916;14.536;2023-05-02T13:58:47;4.88;;;2.40;;
42846;SDS011;28495;49.916;14.536;2023-05-02T14:04:08;3.35;;;2.88;;
42846;SDS011;28495;49.916;14.536;2023-05-02T14:09:29;4.05;;;2.83;;
42846;SDS011;28495;49.916;14.536;2023-05-02T14:14:50;5.07;;;2.40;;
42846;SDS011;28495;49.916;14.536;2023-05-02T14:20:12;5.45;;;2.65;;
42846;SDS011;28495;49.916;14.536;2023-05-02T14:25:33;5.03;;;2.60;;
42846;SDS011;28495;49.916;14.536;2023-05-02T14:30:54;3.47;;;2.30;;
42846;SDS011;28495;49.916;14.536;2023-05-02T14:36:15;3.80;;;2.63;;
42846;SDS011;28495;49.916;14.536;2023-05-02T14:41:36;6.28;;;2.50;;
42846;SDS011;28495;49.916;14.536;2023-05-02T14:46:57;2.65;;;2.30;;
42846;SDS011;28495;49.916;14.536;2023-05-02T14:52:18;3.90;;;2.45;;
42846;SDS011;28495;49.916;14.536;2023-05-02T14:57:40;3.55;;;2.13;;
42846;SDS011;28495;49.916;14.536;2023-05-02T15:03:03;3.50;;;2.30;;
42846;SDS011;28495;49.916;14.536;2023-05-02T15:08:27;3.90;;;2.30;;
42846;SDS011;28495;49.916;14.536;2023-05-02T15:13:48;3.08;;;2.13;;
42846;SDS011;28495;49.916;14.536;2023-05-02T15:19:09;4.40;;;2.92;;
42846;SDS011;28495;49.916;14.536;2023-05-02T15:24:30;5.13;;;3.33;;
42846;SDS011;28495;49.916;14.536;2023-05-02T15:29:52;7.97;;;4.30;;
42846;SDS011;28495;49.916;14.536;2023-05-02T15:35:14;3.67;;;2.72;;
42846;SDS011;28495;49.916;14.536;2023-05-02T15:40:35;3.45;;;2.58;;
42846;SDS011;28495;49.916;14.536;2023-05-02T15:45:56;2.67;;;2.33;;
42846;SDS011;28495;49.916;14.536;2023-05-02T15:51:19;3.50;;;2.40;;
42846;SDS011;28495;49.916;14.536;2023-05-02T15:56:40;5.35;;;2.22;;
42846;SDS011;28495;49.916;14.536;2023-05-02T16:02:01;3.75;;;2.58;;
42846;SDS011;28495;49.916;14.536;2023-05-02T16:07:23;3.33;;;2.72;;
42846;SDS011;28495;49.916;14.536;2023-05-02T16:12:43;2.55;;;2.13;;
42846;SDS011;28495;49.916;14.536;2023-05-02T16:18:04;3.83;;;2.80;;
42846;SDS011;28495;49.916;14.536;2023-05-02T16:23:25;2.25;;;2.05;;
42846;SDS011;28495;49.916;14.536;2023-05-02T16:28:48;5.38;;;2.50;;
42846;SDS011;28495;49.916;14.536;2023-05-02T16:34:09;3.10;;;2.80;;
42846;SDS011;28495;49.916;14.536;2023-05-02T16:39:31;2.58;;;2.38;;
42846;SDS011;28495;49.916;14.536;2023-05-02T16:44:54;5.00;;;2.80;;
42846;SDS011;28495;49.916;14.536;2023-05-02T16:50:16;4.80;;;2.50;;
42846;SDS011;28495;49.916;14.536;2023-05-02T16:55:37;3.83;;;2.85;;
42846;SDS011;28495;49.916;14.536;2023-05-02T17:00:58;3.28;;;2.78;;
42846;SDS011;28495;49.916;14.536;2023-05-02T17:06:20;6.47;;;3.10;;
42846;SDS011;28495;49.916;14.536;2023-05-02T17:11:42;5.05;;;3.80;;
42846;SDS011;28495;49.916;14.536;2023-05-02T17:17:03;5.57;;;3.20;;
42846;SDS011;28495;49.916;14.536;2023-05-02T17:22:25;3.67;;;3.38;;
42846;SDS011;28495;49.916;14.536;2023-05-02T17:27:46;4.85;;;3.15;;
42846;SDS011;28495;49.916;14.536;2023-05-02T17:33:07;2.85;;;2.55;;
42846;SDS011;28495;49.916;14.536;2023-05-02T17:38:29;3.20;;;2.90;;
42846;SDS011;28495;49.916;14.536;2023-05-02T17:43:50;5.25;;;3.28;;
42846;SDS011;28495;49.916;14.536;2023-05-02T17:49:11;3.25;;;2.90;;
42846;SDS011;28495;49.916;14.536;2023-05-02T17:54:32;4.00;;;3.30;;
42846;SDS011;28495;49.916;14.536;2023-05-02T17:59:53;3.83;;;3.40;;
42846;SDS011;28495;49.916;14.536;2023-05-02T18:05:19;3.90;;;2.67;;
42846;SDS011;28495;49.916;14.536;2023-05-02T18:10:41;3.83;;;3.25;;
42846;SDS011;28495;49.916;14.536;2023-05-02T18:16:02;4.53;;;3.05;;
42846;SDS011;28495;49.916;14.536;2023-05-02T18:21:24;3.03;;;2.60;;
42846;SDS011;28495;49.916;14.536;2023-05-02T18:26:47;3.20;;;2.42;;
42846;SDS011;28495;49.916;14.536;2023-05-02T18:32:09;4.47;;;2.50;;
42846;SDS011;28495;49.916;14.536;2023-05-02T18:37:30;4.78;;;2.50;;
42846;SDS011;28495;49.916;14.536;2023-05-02T18:42:51;10.68;;;3.13;;
42846;SDS011;28495;49.916;14.536;2023-05-02T18:48:12;8.57;;;2.80;;
42846;SDS011;28495;49.916;14.536;2023-05-02T18:53:33;4.25;;;2.78;;
42846;SDS011;28495;49.916;14.536;2023-05-02T18:58:54;4.80;;;3.03;;
42846;SDS011;28495;49.916;14.536;2023-05-02T19:04:16;6.75;;;3.15;;
42846;SDS011;28495;49.916;14.536;2023-05-02T19:09:38;6.47;;;3.10;;
42846;SDS011;28495;49.916;14.536;2023-05-02T19:14:59;9.82;;;3.10;;
42846;SDS011;28495;49.916;14.536;2023-05-02T19:20:21;10.63;;;3.47;;
42846;SDS011;28495;49.916;14.536;2023-05-02T19:25:42;7.80;;;4.03;;
42846;SDS011;28495;49.916;14.536;2023-05-02T19:31:10;5.10;;;3.58;;
42846;SDS011;28495;49.916;14.536;2023-05-02T19:36:32;4.05;;;3.38;;
42846;SDS011;28495;49.916;14.536;2023-05-02T19:41:53;6.78;;;3.90;;
42846;SDS011;28495;49.916;14.536;2023-05-02T19:47:14;8.93;;;4.13;;
42846;SDS011;28495;49.916;14.536;2023-05-02T19:52:35;6.93;;;5.28;;
42846;SDS011;28495;49.916;14.536;2023-05-02T19:57:58;6.97;;;4.35;;
42846;SDS011;28495;49.916;14.536;2023-05-02T20:03:24;6.75;;;5.00;;
42846;SDS011;28495;49.916;14.536;2023-05-02T20:08:45;6.57;;;4.78;;
42846;SDS011;28495;49.916;14.536;2023-05-02T20:14:06;5.25;;;4.13;;
42846;SDS011;28495;49.916;14.536;2023-05-02T20:19:27;6.63;;;4.18;;
42846;SDS011;28495;49.916;14.536;2023-05-02T20:24:51;7.65;;;5.00;;
42846;SDS011;28495;49.916;14.536;2023-05-02T20:30:12;7.10;;;4.45;;
42846;SDS011;28495;49.916;14.536;2023-05-02T20:35:34;6.20;;;4.60;;
42846;SDS011;28495;49.916;14.536;2023-05-02T20:40:55;7.50;;;4.20;;
42846;SDS011;28495;49.916;14.536;2023-05-02T20:46:17;5.82;;;4.07;;
42846;SDS011;28495;49.916;14.536;2023-05-02T20:51:39;7.10;;;4.60;;
42846;SDS011;28495;49.916;14.536;2023-05-02T20:57:00;7.32;;;4.53;;
42846;SDS011;28495;49.916;14.536;2023-05-02T21:02:23;5.55;;;3.55;;
42846;SDS011;28495;49.916;14.536;2023-05-02T21:07:44;6.55;;;3.67;;
42846;SDS011;28495;49.916;14.536;2023-05-02T21:13:06;6.20;;;3.63;;
42846;SDS011;28495;49.916;14.536;2023-05-02T21:18:26;4.00;;;2.63;;
42846;SDS011;28495;49.916;14.536;2023-05-02T21:23:47;4.30;;;2.67;;
42846;SDS011;28495;49.916;14.536;2023-05-02T21:29:08;6.28;;;2.85;;
42846;SDS011;28495;49.916;14.536;2023-05-02T21:34:30;6.07;;;3.10;;
42846;SDS011;28495;49.916;14.536;2023-05-02T21:39:51;5.38;;;2.70;;
42846;SDS011;28495;49.916;14.536;2023-05-02T21:45:13;3.50;;;2.78;;
42846;SDS011;28495;49.916;14.536;2023-05-02T21:50:34;3.05;;;2.75;;
42846;SDS011;28495;49.916;14.536;2023-05-02T21:55:56;3.22;;;2.63;;
42846;SDS011;28495;49.916;14.536;2023-05-02T22:01:16;5.10;;;3.60;;
42846;SDS011;28495;49.916;14.536;2023-05-02T22:06:38;6.00;;;3.20;;
42846;SDS011;28495;49.916;14.536;2023-05-02T22:11:58;5.50;;;3.40;;
42846;SDS011;28495;49.916;14.536;2023-05-02T22:17:19;3.70;;;2.65;;
42846;SDS011;28495;49.916;14.536;2023-05-02T22:22:42;2.88;;;2.53;;
42846;SDS011;28495;49.916;14.536;2023-05-02T22:28:04;4.65;;;3.03;;
42846;SDS011;28495;49.916;14.536;2023-05-02T22:33:26;5.85;;;3.20;;
42846;SDS011;28495;49.916;14.536;2023-05-02T22:38:47;5.20;;;3.25;;
42846;SDS011;28495;49.916;14.536;2023-05-02T22:44:08;4.55;;;3.30;;
42846;SDS011;28495;49.916;14.536;2023-05-02T22:49:29;4.85;;;3.25;;
42846;SDS011;28495;49.916;14.536;2023-05-02T22:54:52;6.60;;;3.45;;
42846;SDS011;28495;49.916;14.536;2023-05-02T23:00:13;3.65;;;2.72;;
42846;SDS011;28495;49.916;14.536;2023-05-02T23:05:34;6.00;;;2.70;;
42846;SDS011;28495;49.916;14.536;2023-05-02T23:10:55;5.03;;;2.45;;
42846;SDS011;28495;49.916;14.536;2023-05-02T23:16:16;2.35;;;1.98;;
42846;SDS011;28495;49.916;14.536;2023-05-02T23:21:37;4.95;;;2.30;;
42846;SDS011;28495;49.916;14.536;2023-05-02T23:26:58;3.53;;;2.13;;
42846;SDS011;28495;49.916;14.536;2023-05-02T23:32:19;5.00;;;2.13;;
42846;SDS011;28495;49.916;14.536;2023-05-02T23:37:43;3.50;;;1.70;;
42846;SDS011;28495;49.916;14.536;2023-05-02T23:43:04;4.03;;;1.95;;
42846;SDS011;28495;49.916;14.536;2023-05-02T23:48:26;5.60;;;2.30;;
42846;SDS011;28495;49.916;14.536;2023-05-02T23:53:47;2.20;;;1.90;;
42846;SDS011;28495;49.916;14.536;2023-05-02T23:59:09;3.60;;;2.28;;
